Time;durP1;ratioP1;P1;durP2;ratioP2;P2;SDS_P1;SDS_P2;PMS_P1;PMS_P2;Temp;Humidity;BMP_temperature;BMP_pressure;BME280_temperature;BME280_humidity;BME280_pressure;Samples;Min_cycle;Max_cycle;Signal;HPM_P1;HPM_P2
2022/09/25 00:00:53;;;;;;;15.93;14.63;;;10.40;99.90;;;;;;4897463;29;20280;-79
2022/09/25 00:03:21;;;;;;;14.00;12.90;;;10.30;99.90;;;;;;4873080;29;20701;-78
2022/09/25 00:05:48;;;;;;;14.90;13.70;;;10.20;99.90;;;;;;4876919;29;20208;-78
2022/09/25 00:08:17;;;;;;;16.13;14.67;;;10.20;99.90;;;;;;4875632;29;20239;-78
2022/09/25 00:10:45;;;;;;;15.67;14.30;;;10.20;99.90;;;;;;4880208;29;20239;-78
2022/09/25 00:13:14;;;;;;;16.30;14.80;;;10.20;99.90;;;;;;4874627;29;20296;-78
2022/09/25 00:15:46;;;;;;;16.47;14.90;;;10.20;99.90;;;;;;4874188;29;20742;-78
2022/09/25 00:18:14;;;;;;;16.20;14.80;;;10.20;99.90;;;;;;4892398;29;20221;-78
2022/09/25 00:20:40;;;;;;;16.30;14.90;;;10.20;99.90;;;;;;4880234;29;20299;-78
2022/09/25 00:23:07;;;;;;;15.67;14.17;;;10.20;99.90;;;;;;4877732;29;20280;-78
2022/09/25 00:25:35;;;;;;;16.03;14.53;;;10.20;99.90;;;;;;4894461;29;20205;-78
2022/09/25 00:28:02;;;;;;;15.13;13.83;;;10.10;99.90;;;;;;4892607;29;20228;-77
2022/09/25 00:30:30;;;;;;;15.40;14.10;;;9.90;99.90;;;;;;4872672;29;20329;-78
2022/09/25 00:32:57;;;;;;;14.97;13.67;;;9.90;99.90;;;;;;4873870;29;20205;-79
2022/09/25 00:35:24;;;;;;;14.23;13.10;;;9.90;99.90;;;;;;4875203;29;20766;-78
2022/09/25 00:37:51;;;;;;;14.70;13.50;;;10.00;99.90;;;;;;4880002;29;20216;-78
2022/09/25 00:40:18;;;;;;;15.63;14.23;;;10.00;99.90;;;;;;4879754;29;20288;-79
2022/09/25 00:42:45;;;;;;;15.70;14.50;;;9.90;99.90;;;;;;4875443;29;20208;-78
2022/09/25 00:45:17;;;;;;;16.43;15.13;;;9.90;99.90;;;;;;4891038;29;20239;-78
2022/09/25 00:47:54;;;;;;;16.57;15.33;;;9.90;99.90;;;;;;4890107;29;20223;-78
2022/09/25 00:50:30;;;;;;;17.90;16.40;;;9.90;99.90;;;;;;4889327;29;20945;-78
2022/09/25 00:53:03;;;;;;;17.63;16.23;;;9.90;99.90;;;;;;4892955;29;20200;-78
2022/09/25 00:55:32;;;;;;;18.90;17.23;;;9.80;99.90;;;;;;4885173;29;20201;-78
2022/09/25 00:58:01;;;;;;;17.97;16.57;;;9.90;99.90;;;;;;4892267;29;20216;-79
2022/09/25 01:00:28;;;;;;;17.37;15.87;;;9.90;99.90;;;;;;4887754;29;20208;-78
2022/09/25 01:02:57;;;;;;;17.00;15.50;;;9.90;99.90;;;;;;4891301;29;20200;-78
2022/09/25 01:05:28;;;;;;;14.40;13.30;;;9.80;99.90;;;;;;4890273;29;20203;-78
2022/09/25 01:07:57;;;;;;;16.80;15.43;;;9.80;99.90;;;;;;4907966;23;20235;-79
2022/09/25 01:10:24;;;;;;;15.70;14.40;;;9.80;99.90;;;;;;4919427;29;20195;-81
2022/09/25 01:12:52;;;;;;;14.47;13.37;;;9.80;99.90;;;;;;4920087;29;20230;-81
2022/09/25 01:15:21;;;;;;;13.67;12.33;;;9.80;99.90;;;;;;4937314;29;20215;-81
2022/09/25 01:18:00;;;;;;;12.00;10.97;;;9.90;99.90;;;;;;4919409;29;20227;-81
2022/09/25 01:20:50;;;;;;;15.53;14.03;;;9.80;99.90;;;;;;4919547;29;20226;-81
2022/09/25 01:23:45;;;;;;;14.27;13.17;;;9.80;99.90;;;;;;4934206;29;20195;-81
2022/09/25 01:26:31;;;;;;;14.93;13.83;;;9.90;99.90;;;;;;4919936;29;20262;-81
2022/09/25 01:29:10;;;;;;;15.90;14.70;;;9.90;99.90;;;;;;4916070;29;20290;-81
2022/09/25 01:31:45;;;;;;;15.20;14.00;;;9.70;99.90;;;;;;4934255;29;20195;-81
2022/09/25 01:34:18;;;;;;;14.80;13.70;;;9.60;99.90;;;;;;4923552;29;20203;-81
2022/09/25 01:36:51;;;;;;;15.30;14.17;;;9.60;99.90;;;;;;4940751;29;20199;-81
2022/09/25 01:39:21;;;;;;;15.20;14.10;;;9.50;99.90;;;;;;4940567;29;20219;-81
2022/09/25 01:41:54;;;;;;;13.50;12.50;;;9.40;99.90;;;;;;4923117;29;20207;-81
2022/09/25 01:44:28;;;;;;;15.10;14.10;;;9.40;99.90;;;;;;4940237;29;20243;-81
2022/09/25 01:47:02;;;;;;;16.20;15.00;;;9.40;99.90;;;;;;4940781;29;20714;-80
2022/09/25 01:49:32;;;;;;;11.57;10.57;;;9.40;99.90;;;;;;4915789;29;20578;-81
2022/09/25 01:52:02;;;;;;;11.93;10.97;;;9.30;99.90;;;;;;4937471;29;20258;-81
2022/09/25 01:54:34;;;;;;;11.87;10.87;;;9.30;99.90;;;;;;4920897;29;20211;-81
2022/09/25 01:57:08;;;;;;;13.93;12.90;;;9.30;99.90;;;;;;4917826;29;20238;-80
2022/09/25 01:59:41;;;;;;;8.87;8.07;;;9.20;99.90;;;;;;4933465;29;20770;-81
2022/09/25 02:02:13;;;;;;;9.33;8.43;;;9.20;99.90;;;;;;4923023;29;20210;-81
2022/09/25 02:04:43;;;;;;;9.40;8.43;;;9.20;99.90;;;;;;4923224;29;20297;-80
2022/09/25 02:07:15;;;;;;;9.13;8.23;;;9.20;99.90;;;;;;4923328;29;20234;-80
2022/09/25 02:09:45;;;;;;;9.00;8.10;;;9.10;99.90;;;;;;4922592;29;20188;-80
2022/09/25 02:12:16;;;;;;;9.17;8.30;;;9.00;99.90;;;;;;4922985;29;20634;-80
2022/09/25 02:14:48;;;;;;;8.40;7.60;;;9.00;99.90;;;;;;4923341;29;20210;-80
2022/09/25 02:22:51;;;;;;;11.37;10.37;;;9.00;99.90;;;;;;4940301;29;20679;-81
2022/09/25 02:25:24;;;;;;;9.40;8.50;;;8.90;99.90;;;;;;4922821;29;20253;-80
2022/09/25 02:27:52;;;;;;;10.07;9.17;;;8.90;99.90;;;;;;4922797;29;20219;-81
2022/09/25 02:30:20;;;;;;;9.37;8.47;;;9.00;99.90;;;;;;4938209;29;20191;-80
2022/09/25 02:32:47;;;;;;;10.20;9.40;;;9.00;99.90;;;;;;4923443;29;20579;-82
2022/09/25 02:35:14;;;;;;;8.33;7.53;;;9.10;99.90;;;;;;4922714;29;20199;-80
2022/09/25 02:37:41;;;;;;;8.33;7.53;;;9.20;99.90;;;;;;4940125;29;20700;-81
2022/09/25 02:40:10;;;;;;;9.37;8.50;;;9.20;99.90;;;;;;4921881;29;20235;-80
2022/09/25 02:42:47;;;;;;;8.73;7.87;;;9.30;99.90;;;;;;4922313;29;20207;-81
2022/09/25 02:45:27;;;;;;;8.07;7.27;;;9.40;99.90;;;;;;4923028;29;20203;-81
2022/09/25 02:48:07;;;;;;;7.70;6.90;;;9.40;99.90;;;;;;4922704;29;20274;-80
2022/09/25 02:50:42;;;;;;;7.27;6.57;;;9.40;99.90;;;;;;4915844;29;20203;-81
2022/09/25 02:53:15;;;;;;;9.10;7.00;;;9.40;99.90;;;;;;4917528;29;20676;-79
2022/09/25 02:55:48;;;;;;;7.30;6.60;;;9.50;99.90;;;;;;4921978;29;20199;-80
2022/09/25 02:58:20;;;;;;;8.33;7.10;;;9.50;99.90;;;;;;4922347;29;20274;-81
2022/09/25 03:00:52;;;;;;;9.63;8.10;;;9.50;99.90;;;;;;4939844;29;20589;-80
2022/09/25 03:03:21;;;;;;;8.63;7.73;;;9.50;99.90;;;;;;4922203;29;20213;-81
2022/09/25 03:05:49;;;;;;;9.63;7.87;;;9.50;99.90;;;;;;4922468;29;20746;-81
2022/09/25 03:11:01;;;;;;;10.07;7.97;;;9.40;99.90;;;;;;4939290;29;20682;-80
2022/09/25 03:13:30;;;;;;;9.00;8.10;;;9.50;99.90;;;;;;4914460;29;20200;-81
2022/09/25 03:16:02;;;;;;;8.27;7.47;;;9.40;99.90;;;;;;4939409;29;20286;-80
2022/09/25 03:18:29;;;;;;;9.60;8.70;;;9.60;99.90;;;;;;4932328;29;20703;-81
2022/09/25 03:20:56;;;;;;;8.77;7.90;;;9.60;99.90;;;;;;4939226;29;20766;-81
2022/09/25 03:23:23;;;;;;;8.70;7.90;;;9.60;99.90;;;;;;4922099;29;20699;-80
2022/09/25 03:25:53;;;;;;;7.10;6.40;;;9.60;99.90;;;;;;4922481;29;20195;-81
2022/09/25 03:28:20;;;;;;;14.57;8.40;;;9.60;99.90;;;;;;4939325;29;20223;-81
2022/09/25 03:30:57;;;;;;;8.73;7.73;;;9.70;99.90;;;;;;4922234;29;20348;-81
2022/09/25 03:33:26;;;;;;;9.97;8.97;;;9.70;99.90;;;;;;4922758;29;20203;-81
2022/09/25 03:36:05;;;;;;;10.70;8.23;;;9.70;99.90;;;;;;4922504;29;20223;-81
2022/09/25 03:38:33;;;;;;;9.30;7.70;;;9.80;99.90;;;;;;4915429;29;20322;-81
2022/09/25 03:40:59;;;;;;;9.07;7.80;;;9.90;99.90;;;;;;4939136;29;20653;-81
2022/09/25 03:43:26;;;;;;;8.53;7.73;;;9.90;99.90;;;;;;4922254;29;20691;-81
2022/09/25 03:45:53;;;;;;;8.73;7.93;;;9.90;99.90;;;;;;4939151;29;20200;-80
2022/09/25 03:48:20;;;;;;;11.07;8.60;;;10.00;99.90;;;;;;4922456;29;20703;-81
2022/09/25 03:50:49;;;;;;;9.27;8.37;;;10.10;99.90;;;;;;4939309;29;20203;-80
2022/09/25 03:53:17;;;;;;;10.43;9.33;;;10.10;99.90;;;;;;4938258;29;20195;-80
2022/09/25 03:55:47;;;;;;;11.63;9.63;;;10.10;99.90;;;;;;4922397;29;20242;-81
2022/09/25 03:58:15;;;;;;;14.17;9.10;;;10.10;99.90;;;;;;4939148;29;20258;-81
2022/09/25 04:00:42;;;;;;;10.63;9.60;;;10.10;99.90;;;;;;4921673;29;20215;-81
2022/09/25 04:03:09;;;;;;;11.20;10.03;;;10.10;99.90;;;;;;4939084;29;20617;-80
2022/09/25 04:05:36;;;;;;;13.57;10.43;;;10.10;99.90;;;;;;4921601;29;20199;-81
2022/09/25 04:08:04;;;;;;;11.40;10.20;;;10.10;99.90;;;;;;4939100;29;20720;-80
2022/09/25 04:10:31;;;;;;;11.97;10.77;;;10.10;99.90;;;;;;4939446;29;20567;-81
2022/09/25 04:12:58;;;;;;;13.93;11.00;;;10.10;99.90;;;;;;4922062;29;20264;-81
2022/09/25 04:15:25;;;;;;;12.93;10.07;;;10.10;99.90;;;;;;4921561;29;20235;-82
2022/09/25 04:17:52;;;;;;;12.13;10.43;;;10.10;99.90;;;;;;4921602;29;20278;-81
2022/09/25 04:20:20;;;;;;;12.07;10.23;;;10.10;99.90;;;;;;4938834;29;20304;-82
2022/09/25 04:22:46;;;;;;;11.93;10.43;;;10.20;99.90;;;;;;4938249;29;20223;-80
2022/09/25 04:25:15;;;;;;;11.60;10.20;;;10.10;99.90;;;;;;4921316;29;20199;-80
2022/09/25 04:27:42;;;;;;;10.67;9.57;;;10.20;99.90;;;;;;4935144;29;20940;-79
2022/09/25 04:30:10;;;;;;;11.90;10.57;;;10.20;99.90;;;;;;4951966;29;20198;-81
2022/09/25 04:35:22;;;;;;;11.83;9.47;;;10.20;99.90;;;;;;4928328;29;20202;-82
2022/09/25 04:37:49;;;;;;;11.67;10.47;;;10.20;99.90;;;;;;4920956;29;20227;-82
2022/09/25 04:40:17;;;;;;;10.93;9.77;;;10.20;99.90;;;;;;4941690;29;20250;-82
2022/09/25 04:42:44;;;;;;;12.03;10.53;;;10.20;99.90;;;;;;4923340;29;20199;-80
2022/09/25 04:45:11;;;;;;;10.67;9.57;;;10.30;99.90;;;;;;4921163;29;20219;-81
2022/09/25 04:47:38;;;;;;;11.07;9.97;;;10.20;99.90;;;;;;4914674;29;20243;-81
2022/09/25 04:50:05;;;;;;;13.77;10.40;;;10.30;99.90;;;;;;4922331;29;20575;-82
2022/09/25 04:52:32;;;;;;;9.17;8.27;;;10.30;99.90;;;;;;4939396;29;20207;-82
2022/09/25 04:54:58;;;;;;;9.40;8.43;;;10.30;99.90;;;;;;4921909;29;20228;-81
2022/09/25 04:57:27;;;;;;;10.90;9.30;;;10.30;99.90;;;;;;4917654;29;20318;-80
2022/09/25 04:59:53;;;;;;;11.13;9.40;;;10.30;99.90;;;;;;4920736;29;20677;-79
2022/09/25 05:02:20;;;;;;;11.07;9.67;;;10.30;99.90;;;;;;4919902;29;20263;-79
2022/09/25 05:04:47;;;;;;;9.83;8.83;;;10.30;99.90;;;;;;4925463;29;20250;-79
2022/09/25 05:07:14;;;;;;;10.03;9.03;;;10.30;99.90;;;;;;4927099;29;20231;-78
2022/09/25 05:09:41;;;;;;;9.20;8.30;;;10.30;99.90;;;;;;4926403;29;20238;-79
2022/09/25 05:12:08;;;;;;;8.33;7.53;;;10.30;99.90;;;;;;4927489;29;20619;-79
2022/09/25 05:14:39;;;;;;;10.00;9.00;;;10.30;99.90;;;;;;4927589;29;20199;-80
2022/09/25 05:17:08;;;;;;;10.13;9.03;;;10.30;99.90;;;;;;4945297;29;20246;-80
2022/09/25 05:19:35;;;;;;;9.63;8.63;;;10.30;99.90;;;;;;4926926;29;20205;-82
2022/09/25 05:22:02;;;;;;;10.27;9.23;;;10.40;99.90;;;;;;4928454;29;20250;-81
2022/09/25 05:24:30;;;;;;;9.30;8.40;;;10.30;99.90;;;;;;4929310;29;20234;-82
2022/09/25 05:26:57;;;;;;;9.03;8.13;;;10.30;99.90;;;;;;4946379;29;20187;-78
2022/09/25 05:29:24;;;;;;;9.63;8.73;;;10.40;99.90;;;;;;4927659;29;20199;-82
2022/09/25 05:31:52;;;;;;;10.48;9.43;;;10.40;99.90;;;;;;4944528;29;20440;-82
2022/09/25 05:34:19;;;;;;;9.80;8.80;;;10.40;99.90;;;;;;4946252;29;20218;-79
2022/09/25 05:36:46;;;;;;;8.90;8.00;;;10.40;99.90;;;;;;4927939;29;20758;-79
2022/09/25 05:39:13;;;;;;;9.80;8.47;;;10.40;99.90;;;;;;4949394;29;20199;-79
2022/09/25 05:41:40;;;;;;;9.73;8.73;;;10.40;99.90;;;;;;4945298;29;20211;-81
2022/09/25 05:44:08;;;;;;;10.67;8.83;;;10.40;99.90;;;;;;4926394;29;20203;-80
2022/09/25 05:46:35;;;;;;;8.90;8.00;;;10.40;99.90;;;;;;4943589;29;20211;-79
2022/09/25 05:49:04;;;;;;;9.43;8.17;;;10.50;99.90;;;;;;4945289;29;20615;-79
2022/09/25 05:51:31;;;;;;;9.57;8.67;;;10.60;99.90;;;;;;4928291;29;20219;-79
2022/09/25 05:53:59;;;;;;;10.00;8.83;;;10.60;99.90;;;;;;4944990;29;20255;-80
2022/09/25 05:56:26;;;;;;;9.23;8.33;;;10.60;99.90;;;;;;4928522;29;20203;-80
2022/09/25 05:58:54;;;;;;;9.00;8.07;;;10.70;99.90;;;;;;4944785;29;20274;-79
2022/09/25 06:01:21;;;;;;;8.97;8.10;;;10.70;99.90;;;;;;4925332;29;20655;-79
2022/09/25 06:03:48;;;;;;;9.00;8.10;;;10.80;99.90;;;;;;4945000;29;20195;-79
2022/09/25 06:06:16;;;;;;;8.63;7.63;;;10.70;99.90;;;;;;4931623;29;20211;-82
2022/09/25 06:08:43;;;;;;;9.10;8.20;;;10.80;99.90;;;;;;4927481;29;20649;-80
2022/09/25 06:11:10;;;;;;;8.43;7.63;;;10.80;99.90;;;;;;4944240;29;20208;-80
2022/09/25 06:13:37;;;;;;;9.63;8.70;;;10.80;99.90;;;;;;4929263;29;20223;-81
2022/09/25 06:16:05;;;;;;;8.07;7.27;;;10.80;99.90;;;;;;4924690;29;20251;-80
2022/09/25 06:18:32;;;;;;;8.37;7.53;;;10.80;99.90;;;;;;4925481;29;20222;-81
2022/09/25 06:21:01;;;;;;;8.20;7.30;;;10.90;99.90;;;;;;4942625;29;20211;-80
2022/09/25 06:23:30;;;;;;;8.67;7.87;;;11.00;99.90;;;;;;4936115;29;20714;-79
2022/09/25 06:26:00;;;;;;;9.07;8.17;;;11.00;99.90;;;;;;4936614;29;20254;-78
2022/09/25 06:28:27;;;;;;;9.73;8.37;;;11.00;99.90;;;;;;4924428;29;20678;-80
2022/09/25 06:30:54;;;;;;;9.33;8.43;;;11.10;99.90;;;;;;4907779;29;20225;-79
2022/09/25 06:33:21;;;;;;;9.33;8.27;;;11.20;99.90;;;;;;4925584;29;20212;-80
2022/09/25 06:35:49;;;;;;;9.40;8.50;;;11.30;99.90;;;;;;4922777;29;20196;-79
2022/09/25 06:38:16;;;;;;;8.00;7.20;;;11.40;99.90;;;;;;4923017;29;20232;-79
2022/09/25 06:40:44;;;;;;;8.13;7.33;;;11.50;99.90;;;;;;4922353;29;20245;-79
2022/09/25 06:43:13;;;;;;;7.87;7.07;;;11.80;99.90;;;;;;4923348;29;20209;-80
2022/09/25 06:45:40;;;;;;;8.47;7.67;;;11.80;99.90;;;;;;4920868;29;20205;-79
2022/09/25 06:48:10;;;;;;;7.97;7.23;;;11.90;99.90;;;;;;4939978;29;20288;-80
2022/09/25 06:50:41;;;;;;;7.57;6.87;;;12.00;99.90;;;;;;4920590;29;20196;-80
2022/09/25 06:53:08;;;;;;;7.87;7.07;;;12.10;99.90;;;;;;4938651;29;20202;-80
2022/09/25 06:55:35;;;;;;;8.40;7.30;;;12.20;99.90;;;;;;4923989;29;20233;-80
2022/09/25 06:58:04;;;;;;;6.83;6.20;;;12.40;99.90;;;;;;4925860;29;20312;-79
2022/09/25 07:00:31;;;;;;;6.90;6.30;;;12.60;99.90;;;;;;4938219;29;20199;-80
2022/09/25 07:05:43;;;;;;;6.97;6.33;;;13.10;99.90;;;;;;4933106;29;20202;-80
2022/09/25 07:08:12;;;;;;;6.47;5.87;;;13.20;99.90;;;;;;4939361;29;20233;-80
2022/09/25 07:10:39;;;;;;;5.60;5.10;;;13.40;99.90;;;;;;4924398;29;20230;-81
2022/09/25 07:13:08;;;;;;;6.63;6.00;;;13.50;99.90;;;;;;4922993;29;20212;-80
2022/09/25 07:15:34;;;;;;;6.53;5.90;;;13.60;99.90;;;;;;4938974;29;20278;-81
2022/09/25 07:18:01;;;;;;;6.67;6.07;;;13.70;99.90;;;;;;4937090;29;20646;-80
2022/09/25 07:20:28;;;;;;;5.97;5.47;;;13.80;99.90;;;;;;4909254;29;20259;-82
2022/09/25 07:23:02;;;;;;;6.53;5.93;;;13.80;99.90;;;;;;4940752;29;20242;-79
2022/09/25 07:25:30;;;;;;;8.03;6.70;;;13.70;99.90;;;;;;4919787;29;20222;-78
2022/09/25 07:27:57;;;;;;;7.07;6.20;;;13.60;99.90;;;;;;4919487;29;20771;-79
2022/09/25 07:30:27;;;;;;;7.23;6.47;;;13.60;99.90;;;;;;4937976;29;20679;-79
2022/09/25 07:32:54;;;;;;;7.77;6.77;;;13.60;99.90;;;;;;4921897;29;20196;-79
2022/09/25 07:35:21;;;;;;;7.70;6.93;;;13.50;99.90;;;;;;4938990;29;20224;-79
2022/09/25 07:37:48;;;;;;;6.87;6.27;;;13.50;99.90;;;;;;4936503;29;20219;-79
2022/09/25 07:40:15;;;;;;;9.20;7.60;;;13.50;99.90;;;;;;4919032;29;20251;-78
2022/09/25 07:42:41;;;;;;;7.57;6.83;;;13.60;99.90;;;;;;4922053;29;20219;-80
2022/09/25 07:45:10;;;;;;;7.33;6.63;;;13.60;99.90;;;;;;4923048;29;20669;-79
2022/09/25 07:47:38;;;;;;;8.30;6.43;;;13.60;99.90;;;;;;4936189;29;20771;-80
2022/09/25 07:50:05;;;;;;;7.57;6.87;;;13.60;99.90;;;;;;4930820;29;20711;-81
2022/09/25 07:52:32;;;;;;;8.63;7.10;;;13.70;99.90;;;;;;4923522;29;20234;-81
2022/09/25 07:54:59;;;;;;;7.13;6.43;;;13.80;99.90;;;;;;4924139;29;20232;-81
2022/09/25 07:57:26;;;;;;;7.80;7.00;;;13.80;99.90;;;;;;4920788;29;20215;-77
2022/09/25 07:59:53;;;;;;;7.73;6.93;;;13.90;99.90;;;;;;4939273;29;20200;-80
2022/09/25 08:02:20;;;;;;;7.63;6.93;;;14.00;99.90;;;;;;4915551;29;20254;-78
2022/09/25 08:04:48;;;;;;;8.33;7.53;;;14.00;99.90;;;;;;4936878;29;20202;-79
2022/09/25 08:07:15;;;;;;;9.77;8.87;;;14.10;99.90;;;;;;4937870;29;20216;-79
2022/09/25 08:09:41;;;;;;;10.40;9.50;;;14.10;99.90;;;;;;4932996;29;20249;-80
2022/09/25 08:12:11;;;;;;;8.70;7.87;;;14.20;99.90;;;;;;4929770;29;20196;-79
2022/09/25 08:14:38;;;;;;;10.00;8.83;;;14.20;99.90;;;;;;4919515;29;20576;-79
2022/09/25 08:17:05;;;;;;;11.77;10.87;;;14.30;99.90;;;;;;4918318;29;20323;-79
2022/09/25 08:19:32;;;;;;;16.33;15.13;;;14.40;99.90;;;;;;4921178;29;20208;-78
2022/09/25 08:22:00;;;;;;;11.70;10.80;;;14.40;99.90;;;;;;4925290;29;20220;-80
2022/09/25 08:24:26;;;;;;;13.37;12.37;;;14.40;99.90;;;;;;4936129;29;20636;-79
2022/09/25 08:26:54;;;;;;;11.80;10.90;;;14.50;99.90;;;;;;4937506;29;20253;-80
2022/09/25 08:29:21;;;;;;;13.00;12.00;;;14.50;99.90;;;;;;4947158;29;20206;-78
2022/09/25 08:31:48;;;;;;;7.27;6.57;;;14.50;99.90;;;;;;4934077;29;20192;-79
2022/09/25 08:34:16;;;;;;;6.47;5.87;;;14.60;99.90;;;;;;4940110;29;20637;-79
2022/09/25 08:36:43;;;;;;;13.30;12.40;;;14.70;99.90;;;;;;4919514;29;20206;-80
2022/09/25 08:39:11;;;;;;;8.17;6.70;;;14.80;99.90;;;;;;4925414;29;20631;-79
2022/09/25 08:41:46;;;;;;;12.07;11.17;;;14.70;99.90;;;;;;4937979;29;20270;-79
2022/09/25 08:44:23;;;;;;;6.90;6.20;;;14.80;99.90;;;;;;4920801;29;20269;-79
2022/09/25 08:49:49;;;;;;;7.73;7.00;;;15.00;99.90;;;;;;4873160;29;20216;-80
2022/09/25 08:52:20;;;;;;;9.20;8.40;;;15.00;99.90;;;;;;4929747;29;20606;-80
2022/09/25 08:54:48;;;;;;;9.90;9.10;;;15.00;99.90;;;;;;4922023;29;20230;-80
2022/09/25 08:57:26;;;;;;;7.03;6.33;;;15.00;99.90;;;;;;4924669;29;20249;-79
2022/09/25 08:59:56;;;;;;;7.83;7.03;;;15.10;99.90;;;;;;4924874;29;20212;-79
2022/09/25 09:02:30;;;;;;;10.07;9.27;;;15.20;99.90;;;;;;4943193;29;20221;-79
2022/09/25 09:05:00;;;;;;;8.17;7.33;;;15.20;99.90;;;;;;4928145;29;20626;-79
2022/09/25 09:07:34;;;;;;;7.50;6.70;;;15.20;99.90;;;;;;4924609;29;20229;-80
2022/09/25 09:10:08;;;;;;;10.20;9.30;;;15.40;99.90;;;;;;4942269;29;20202;-79
2022/09/25 09:12:39;;;;;;;12.40;11.40;;;15.50;99.90;;;;;;4935886;29;20198;-79
2022/09/25 09:15:16;;;;;;;12.30;11.50;;;15.60;99.90;;;;;;4943652;29;20229;-80
2022/09/25 09:17:43;;;;;;;8.00;7.20;;;15.80;99.90;;;;;;4925329;29;20276;-79
2022/09/25 09:20:16;;;;;;;12.87;11.90;;;16.10;99.90;;;;;;4940315;29;20246;-80
2022/09/25 09:22:49;;;;;;;11.83;11.03;;;16.20;99.90;;;;;;4926227;29;20237;-79
2022/09/25 09:25:28;;;;;;;13.63;12.57;;;16.10;99.90;;;;;;4942626;29;20561;-80
2022/09/25 09:28:20;;;;;;;11.97;11.17;;;16.20;99.90;;;;;;4925661;29;20577;-82
2022/09/25 09:30:55;;;;;;;9.53;8.83;;;16.70;99.90;;;;;;4937304;29;20199;-80
2022/09/25 09:33:44;;;;;;;6.77;5.73;;;17.20;99.90;;;;;;4943730;29;20203;-80
2022/09/25 09:36:20;;;;;;;12.07;11.17;;;17.40;99.90;;;;;;4924744;29;20239;-79
2022/09/25 09:38:57;;;;;;;11.13;10.17;;;17.50;99.90;;;;;;4940234;29;20763;-80
2022/09/25 09:41:36;;;;;;;11.57;10.77;;;17.50;99.90;;;;;;4923108;29;20232;-80
2022/09/25 09:44:17;;;;;;;8.53;7.77;;;17.50;99.90;;;;;;4916455;29;20275;-79
2022/09/25 09:46:49;;;;;;;7.63;6.87;;;17.60;99.90;;;;;;4934711;29;20619;-80
2022/09/25 09:49:21;;;;;;;5.70;5.10;;;17.60;99.90;;;;;;4917779;29;20209;-80
2022/09/25 09:51:52;;;;;;;5.57;5.07;;;17.70;99.90;;;;;;4920601;29;20251;-80
2022/09/25 09:54:26;;;;;;;8.90;8.20;;;17.70;99.90;;;;;;4938553;29;20192;-79
2022/09/25 09:56:57;;;;;;;4.70;4.20;;;18.00;99.90;;;;;;4921069;29;20295;-79
2022/09/25 09:59:30;;;;;;;8.03;7.43;;;18.20;99.90;;;;;;4920756;29;20231;-83
2022/09/25 10:02:03;;;;;;;10.73;10.03;;;18.50;99.90;;;;;;4919172;29;20217;-79
2022/09/25 10:04:34;;;;;;;10.00;9.30;;;18.70;99.90;;;;;;4918633;29;20196;-79
2022/09/25 10:07:04;;;;;;;10.40;9.70;;;18.70;99.90;;;;;;4920968;29;20218;-79
2022/09/25 10:09:32;;;;;;;8.80;8.10;;;18.80;99.90;;;;;;4930285;29;20229;-79
2022/09/25 10:12:06;;;;;;;9.73;8.93;;;18.70;99.90;;;;;;4920593;29;20237;-79
2022/09/25 10:14:38;;;;;;;10.10;9.40;;;18.70;99.90;;;;;;4918238;29;20206;-79
2022/09/25 10:17:06;;;;;;;8.33;7.73;;;18.50;99.90;;;;;;4934600;29;20284;-80
2022/09/25 10:19:41;;;;;;;5.73;5.17;;;18.30;99.90;;;;;;4920192;29;20206;-78
2022/09/25 10:22:15;;;;;;;4.40;4.00;;;18.10;99.90;;;;;;4920353;29;20217;-80
2022/09/25 10:24:51;;;;;;;4.50;4.10;;;18.10;99.90;;;;;;4920439;29;20214;-81
2022/09/25 10:27:27;;;;;;;4.07;3.60;;;18.10;99.90;;;;;;4937809;29;20316;-80
2022/09/25 10:30:19;;;;;;;3.90;3.60;;;18.40;99.90;;;;;;4937724;29;20229;-80
2022/09/25 10:32:56;;;;;;;4.73;4.27;;;18.80;99.90;;;;;;4918712;29;20225;-82
2022/09/25 10:35:27;;;;;;;9.40;8.70;;;18.80;99.90;;;;;;4918798;29;20583;-82
2022/09/25 10:37:55;;;;;;;8.80;8.20;;;18.70;99.90;;;;;;4927047;29;20235;-81
2022/09/25 10:40:30;;;;;;;10.07;9.37;;;18.50;99.90;;;;;;4929700;29;20298;-80
2022/09/25 10:43:19;;;;;;;10.47;9.67;;;18.30;99.90;;;;;;4921247;29;20221;-79
2022/09/25 10:45:47;;;;;;;9.87;9.13;;;18.20;99.90;;;;;;4915385;29;20663;-78
2022/09/25 10:51:16;;;;;;;10.40;9.70;;;18.40;99.90;;;;;;4934572;29;20198;-77
2022/09/25 10:53:43;;;;;;;10.20;9.50;;;18.40;99.90;;;;;;4921069;29;20202;-78
2022/09/25 10:56:13;;;;;;;10.10;9.30;;;18.40;99.90;;;;;;4947246;29;20193;-78
2022/09/25 10:58:46;;;;;;;10.60;9.90;;;18.50;99.90;;;;;;4928824;29;20222;-77
2022/09/25 11:01:15;;;;;;;10.03;9.13;;;18.30;99.90;;;;;;4919102;29;20726;-77
2022/09/25 11:03:49;;;;;;;9.23;8.33;;;18.20;99.90;;;;;;4930386;29;20253;-79
2022/09/25 11:06:20;;;;;;;5.97;4.93;;;18.20;99.90;;;;;;4938096;29;20663;-77
2022/09/25 11:08:54;;;;;;;5.30;4.50;;;18.10;99.90;;;;;;4919942;29;20244;-80
2022/09/25 11:11:25;;;;;;;5.40;4.87;;;18.00;99.90;;;;;;4912573;29;20296;-80
2022/09/25 11:13:57;;;;;;;5.20;4.70;;;18.10;99.90;;;;;;4914668;29;20265;-80
2022/09/25 11:16:44;;;;;;;6.00;5.10;;;18.20;99.90;;;;;;4921067;29;20208;-80
2022/09/25 11:19:13;;;;;;;6.13;5.00;;;18.30;99.90;;;;;;4920885;29;20296;-81
2022/09/25 11:21:46;;;;;;;6.37;5.07;;;18.50;99.90;;;;;;4920312;29;20234;-80
2022/09/25 11:24:18;;;;;;;5.30;4.80;;;18.40;99.90;;;;;;4920791;29;20202;-79
2022/09/25 11:26:51;;;;;;;10.53;9.80;;;18.50;99.90;;;;;;4921138;29;20671;-80
2022/09/25 11:29:25;;;;;;;10.83;9.93;;;18.50;99.90;;;;;;4920422;29;20206;-80
2022/09/25 11:31:58;;;;;;;11.23;10.33;;;18.40;99.90;;;;;;4937008;29;20197;-81
2022/09/25 11:34:41;;;;;;;9.60;8.90;;;18.20;99.90;;;;;;4936800;29;20234;-78
2022/09/25 11:37:19;;;;;;;10.17;9.27;;;18.00;99.90;;;;;;4919596;29;20227;-79
2022/09/25 11:42:40;;;;;;;10.40;9.60;;;17.70;99.90;;;;;;4909956;29;20220;-80
2022/09/25 11:45:18;;;;;;;10.43;9.73;;;17.50;99.90;;;;;;4917474;29;20587;-79
2022/09/25 11:47:52;;;;;;;10.50;9.53;;;17.30;99.90;;;;;;4919384;29;20604;-79
2022/09/25 11:50:22;;;;;;;4.60;4.20;;;17.20;99.90;;;;;;4936234;29;20217;-80
2022/09/25 11:53:00;;;;;;;11.17;10.37;;;17.20;99.90;;;;;;4936419;29;20203;-78
2022/09/25 11:56:06;;;;;;;11.53;10.53;;;17.10;99.90;;;;;;4936171;29;20199;-78
2022/09/25 11:58:45;;;;;;;10.87;10.03;;;17.00;99.90;;;;;;4877541;29;20225;-82
2022/09/25 12:01:34;;;;;;;10.47;9.77;;;16.80;99.90;;;;;;4910619;29;20213;-79
2022/09/25 12:04:26;;;;;;;5.10;4.43;;;16.70;99.90;;;;;;4919366;29;20290;-80
2022/09/25 12:07:07;;;;;;;11.83;10.87;;;16.70;99.90;;;;;;4919392;29;20235;-80
2022/09/25 12:10:02;;;;;;;10.73;9.83;;;16.60;99.90;;;;;;4938969;29;20216;-79
2022/09/25 12:12:35;;;;;;;10.90;10.10;;;16.50;99.90;;;;;;4933553;29;20204;-79
2022/09/25 12:15:13;;;;;;;10.40;9.70;;;16.40;99.90;;;;;;4915997;29;20404;-78
2022/09/25 12:17:47;;;;;;;11.20;10.20;;;16.30;99.90;;;;;;4929775;29;20257;-78
2022/09/25 12:20:23;;;;;;;10.63;9.87;;;16.20;99.90;;;;;;4932750;29;20203;-78
2022/09/25 12:23:02;;;;;;;10.40;9.50;;;16.20;99.90;;;;;;4934915;29;20211;-77
2022/09/25 12:25:42;;;;;;;10.93;10.13;;;16.20;99.90;;;;;;4901833;29;20214;-80
2022/09/25 12:28:19;;;;;;;11.00;10.20;;;16.20;99.90;;;;;;4911188;29;20663;-79
2022/09/25 12:30:56;;;;;;;12.13;11.23;;;16.30;99.90;;;;;;4918446;29;20203;-80
2022/09/25 12:33:33;;;;;;;6.60;5.87;;;16.40;99.90;;;;;;4914851;29;20203;-80
2022/09/25 12:36:07;;;;;;;6.13;5.40;;;16.50;99.90;;;;;;4936068;29;20198;-78
2022/09/25 12:38:42;;;;;;;8.13;6.37;;;16.50;99.90;;;;;;4912002;29;20269;-80
2022/09/25 12:41:15;;;;;;;6.23;5.63;;;16.70;99.90;;;;;;4917192;29;20199;-79
2022/09/25 12:43:46;;;;;;;6.10;5.50;;;16.80;99.90;;;;;;4918229;29;20219;-80
2022/09/25 12:46:20;;;;;;;6.20;5.60;;;17.00;99.90;;;;;;4920297;29;20203;-80
2022/09/25 12:48:52;;;;;;;5.73;5.23;;;17.10;99.90;;;;;;4934961;29;20229;-79
2022/09/25 12:51:24;;;;;;;5.37;4.57;;;17.30;99.90;;;;;;4917713;29;20255;-79
2022/09/25 12:53:56;;;;;;;9.00;5.53;;;17.40;99.90;;;;;;4935765;29;20660;-80
2022/09/25 12:56:28;;;;;;;5.83;5.23;;;17.50;99.90;;;;;;4918596;29;20263;-80
2022/09/25 12:59:02;;;;;;;5.90;4.63;;;17.60;99.90;;;;;;4918190;29;20226;-80
2022/09/25 13:01:38;;;;;;;7.07;5.50;;;17.70;99.90;;;;;;4910573;29;20211;-80
2022/09/25 13:04:20;;;;;;;6.30;5.67;;;17.80;99.90;;;;;;4935943;29;20243;-79
2022/09/25 13:06:52;;;;;;;9.13;8.40;;;18.10;99.90;;;;;;4918520;29;20199;-79
2022/09/25 13:09:30;;;;;;;8.30;7.60;;;18.20;99.90;;;;;;4989033;23;20254;-79
2022/09/25 13:12:02;;;;;;;9.60;8.80;;;18.30;99.90;;;;;;4969596;28;20272;-80
2022/09/25 13:14:33;;;;;;;10.60;9.80;;;18.40;99.90;;;;;;4964000;28;20247;-80
2022/09/25 13:17:00;;;;;;;10.37;9.57;;;18.40;99.90;;;;;;4973005;28;20259;-80
2022/09/25 13:19:31;;;;;;;8.37;7.63;;;18.60;99.90;;;;;;4951792;28;20254;-79
2022/09/25 13:22:04;;;;;;;10.37;9.57;;;18.80;99.90;;;;;;4945884;29;20200;-79